Terminal Aerodrome Forecast
Issued by NWS Wichita, KS

Home | Current Version | Previous Version | Graphics & Text | Print | Product List | Glossary On
Versions: 1 2 3 4 5 6 7 8 9 10 11 12 13 14 15 16 17 18 19 20 21
000
FTUS43 KICT 300709 AAC
TAFICT
TAF AMD
KICT 300709Z 3007/0106 33007KT P6SM OVC009
      TEMPO 3007/3010 2SM -DZ BR OVC004
     FM301400 27014KT P6SM SCT035
     FM301800 25013KT P6SM SCT120
     FM010400 28011KT P6SM SCT200=

USA.gov is the U.S. government's official web portal to all federal, state and local government web resources and services.